createdAt,value
2019-01-20T00:02:27.742Z,20.60
2019-01-20T00:05:05.002Z,20.60
2019-01-20T00:07:42.397Z,20.70
2019-01-20T00:10:19.717Z,20.60
2019-01-20T00:12:56.642Z,20.50
2019-01-20T00:15:33.810Z,20.50
2019-01-20T00:18:10.690Z,20.60
2019-01-20T00:20:47.187Z,20.70
2019-01-20T00:23:24.041Z,20.80
2019-01-20T00:26:00.755Z,20.90
2019-01-20T00:28:37.989Z,21.00
2019-01-20T00:31:14.934Z,21.10
2019-01-20T00:33:51.806Z,21.30
2019-01-20T00:36:28.521Z,21.50
2019-01-20T00:39:05.712Z,21.80
2019-01-20T00:41:45.476Z,21.80
2019-01-20T00:44:22.525Z,21.90
2019-01-20T00:46:59.605Z,22.20
2019-01-20T00:49:36.709Z,22.30
2019-01-20T00:52:13.302Z,22.40
2019-01-20T00:54:50.045Z,22.50
2019-01-20T00:57:27.168Z,22.70
2019-01-20T01:00:04.140Z,22.80
2019-01-20T01:02:41.033Z,22.70
2019-01-20T01:05:18.957Z,22.90
2019-01-20T01:07:56.139Z,23.00
2019-01-20T01:10:33.163Z,23.00
2019-01-20T01:13:10.371Z,23.00
2019-01-20T01:15:47.193Z,23.20
2019-01-20T01:18:26.082Z,23.30
2019-01-20T01:21:02.690Z,23.50
2019-01-20T01:23:39.444Z,23.60
2019-01-20T01:26:16.252Z,23.60
2019-01-20T01:28:52.999Z,23.60
2019-01-20T01:31:30.260Z,23.50
2019-01-20T01:34:07.088Z,23.50
2019-01-20T01:36:43.213Z,23.70
2019-01-20T01:39:20.707Z,23.70
2019-01-20T01:41:57.725Z,23.90
2019-01-20T01:44:34.678Z,24.00
2019-01-20T01:47:11.505Z,24.10
2019-01-20T01:49:47.938Z,24.10
2019-01-20T01:52:27.994Z,24.30
2019-01-20T01:55:04.632Z,24.40
2019-01-20T01:57:41.445Z,24.20
2019-01-20T02:00:21.127Z,24.40
2019-01-20T02:02:58.049Z,24.70
2019-01-20T02:05:34.891Z,24.90
2019-01-20T02:08:12.075Z,24.80
2019-01-20T02:10:48.656Z,25.00
2019-01-20T02:13:25.288Z,25.20
2019-01-20T02:16:01.900Z,25.40
2019-01-20T02:18:38.577Z,25.40
2019-01-20T02:21:15.357Z,25.40
2019-01-20T02:23:52.669Z,25.60
2019-01-20T02:26:29.369Z,25.70
2019-01-20T02:29:06.299Z,25.90
2019-01-20T02:31:42.852Z,26.00
2019-01-20T02:34:19.569Z,25.90
2019-01-20T02:36:56.512Z,25.80
2019-01-20T02:39:33.479Z,26.00
2019-01-20T02:42:10.495Z,26.10
2019-01-20T02:44:47.437Z,26.30
2019-01-20T02:47:24.290Z,26.50
2019-01-20T02:50:01.589Z,26.50
2019-01-20T02:52:37.813Z,26.70
2019-01-20T02:55:14.958Z,26.80
2019-01-20T02:57:51.074Z,27.00
2019-01-20T03:00:28.644Z,27.10
2019-01-20T03:03:05.371Z,27.00
2019-01-20T03:05:42.586Z,27.20
2019-01-20T03:08:18.744Z,27.50
2019-01-20T03:10:56.462Z,27.60
2019-01-20T03:13:33.494Z,27.70
2019-01-20T03:16:09.970Z,27.70
2019-01-20T03:18:47.161Z,27.90
2019-01-20T03:21:23.891Z,28.10
2019-01-20T03:24:00.081Z,28.20
2019-01-20T03:26:37.387Z,28.40
2019-01-20T03:29:14.016Z,28.40
2019-01-20T03:31:50.811Z,28.70
2019-01-20T03:34:27.348Z,28.40
2019-01-20T03:37:04.048Z,28.30
2019-01-20T03:39:41.018Z,28.40
2019-01-20T03:42:18.129Z,28.70
2019-01-20T03:44:55.338Z,28.60
2019-01-20T03:47:31.738Z,28.70
2019-01-20T03:50:08.380Z,28.60
2019-01-20T03:52:44.987Z,28.80
2019-01-20T03:55:22.179Z,29.10
2019-01-20T03:57:59.172Z,29.10
2019-01-20T04:00:35.629Z,29.40
2019-01-20T04:03:12.184Z,29.20
2019-01-20T04:05:48.406Z,29.30
2019-01-20T04:08:25.427Z,29.30
2019-01-20T04:11:01.764Z,29.30
2019-01-20T04:13:39.147Z,29.30
2019-01-20T04:16:15.714Z,29.40
2019-01-20T04:18:52.735Z,29.60
2019-01-20T04:21:29.024Z,29.70
2019-01-20T04:24:05.927Z,29.90
2019-01-20T04:26:42.760Z,30.00
2019-01-20T04:29:19.613Z,29.60
2019-01-20T04:31:56.858Z,29.70
2019-01-20T04:34:33.974Z,30.00
2019-01-20T04:37:10.720Z,30.20
2019-01-20T04:39:47.412Z,30.30
2019-01-20T04:42:28.966Z,30.50
2019-01-20T04:45:02.166Z,30.30
2019-01-20T04:47:39.586Z,30.40
2019-01-20T04:50:18.752Z,30.40
2019-01-20T04:52:56.388Z,30.40
2019-01-20T04:55:33.268Z,30.10
2019-01-20T04:58:11.364Z,30.20
2019-01-20T05:00:48.749Z,30.20
2019-01-20T05:03:25.063Z,30.20
2019-01-20T05:06:01.845Z,30.20
2019-01-20T05:08:38.489Z,30.50
2019-01-20T05:11:15.094Z,30.60
2019-01-20T05:13:51.803Z,30.60
2019-01-20T05:16:28.250Z,30.40
2019-01-20T05:19:04.763Z,30.60
2019-01-20T05:21:43.510Z,30.40
2019-01-20T05:24:21.526Z,30.30
2019-01-20T05:26:58.025Z,30.40
2019-01-20T05:29:35.263Z,30.40
2019-01-20T05:32:12.438Z,30.60
2019-01-20T05:34:49.100Z,30.60
2019-01-20T05:37:25.853Z,30.60
2019-01-20T05:40:03.116Z,30.80
2019-01-20T05:42:45.999Z,30.80
2019-01-20T05:45:20.269Z,30.90
2019-01-20T05:47:56.798Z,31.20
2019-01-20T05:50:33.979Z,31.10
2019-01-20T05:53:10.717Z,31.10
2019-01-20T05:55:47.686Z,31.00
2019-01-20T05:58:24.333Z,31.00
2019-01-20T06:01:01.235Z,30.90
2019-01-20T06:03:37.950Z,31.10
2019-01-20T06:06:14.780Z,31.30
2019-01-20T06:08:51.584Z,31.30
2019-01-20T06:11:28.305Z,31.40
2019-01-20T06:14:04.927Z,31.40
2019-01-20T06:16:41.594Z,31.40
2019-01-20T06:19:17.580Z,31.50
2019-01-20T06:21:55.912Z,31.20
2019-01-20T06:24:32.853Z,31.60
2019-01-20T06:27:09.751Z,31.40
2019-01-20T06:29:47.416Z,31.60
2019-01-20T06:32:24.263Z,31.70
2019-01-20T06:35:01.013Z,31.80
2019-01-20T06:37:37.575Z,31.70
2019-01-20T06:40:14.387Z,31.50
2019-01-20T06:43:01.263Z,31.60
2019-01-20T06:45:33.256Z,31.60
2019-01-20T06:48:09.994Z,31.80
2019-01-20T06:50:48.163Z,31.90
2019-01-20T06:53:25.114Z,31.60
2019-01-20T06:56:02.078Z,31.00
2019-01-20T06:58:38.610Z,31.00
2019-01-20T07:01:16.285Z,31.40
2019-01-20T07:03:52.468Z,31.60
2019-01-20T07:06:29.443Z,31.80
2019-01-20T07:09:05.907Z,31.60
2019-01-20T07:11:42.542Z,31.70
2019-01-20T07:14:20.768Z,32.00
2019-01-20T07:16:57.470Z,31.90
2019-01-20T07:19:34.525Z,31.90
2019-01-20T07:22:11.572Z,31.30
2019-01-20T07:24:49.558Z,30.80
2019-01-20T07:27:26.191Z,30.60
2019-01-20T07:30:03.179Z,30.50
2019-01-20T07:32:39.941Z,30.40
2019-01-20T07:35:17.445Z,31.00
2019-01-20T07:37:54.537Z,31.50
2019-01-20T07:40:31.218Z,31.70
2019-01-20T07:43:07.813Z,31.90
2019-01-20T07:45:44.704Z,31.60
2019-01-20T07:48:21.517Z,31.70
2019-01-20T07:50:58.062Z,31.70
2019-01-20T07:53:34.978Z,31.80
2019-01-20T07:56:11.757Z,31.90
2019-01-20T07:58:48.741Z,31.90
2019-01-20T08:01:25.817Z,32.00
2019-01-20T08:04:02.397Z,32.00
2019-01-20T08:06:39.288Z,32.10
2019-01-20T08:09:15.593Z,31.90
2019-01-20T08:11:52.443Z,31.90
2019-01-20T08:14:28.910Z,32.10
2019-01-20T08:17:05.465Z,32.20
2019-01-20T08:19:42.697Z,32.20
2019-01-20T08:22:20.075Z,32.00
2019-01-20T08:24:56.689Z,32.10
2019-01-20T08:27:33.008Z,32.20
2019-01-20T08:30:12.082Z,32.20
2019-01-20T08:32:48.980Z,32.10
2019-01-20T08:35:25.768Z,32.00
2019-01-20T08:38:02.436Z,31.70
2019-01-20T08:40:39.382Z,31.60
2019-01-20T08:43:15.767Z,31.70
2019-01-20T08:46:40.399Z,31.60
2019-01-20T08:49:16.393Z,31.50
2019-01-20T08:51:53.018Z,31.50
2019-01-20T08:54:30.259Z,31.60
2019-01-20T08:57:06.752Z,31.50
2019-01-20T08:59:43.583Z,31.40
2019-01-20T09:02:20.425Z,31.40
2019-01-20T09:04:58.783Z,31.40
2019-01-20T09:07:35.649Z,31.40
2019-01-20T09:10:19.885Z,31.40
2019-01-20T09:12:56.860Z,31.40
2019-01-20T09:15:33.574Z,31.40
2019-01-20T09:18:10.382Z,31.30
2019-01-20T09:20:47.019Z,31.40
2019-01-20T09:23:24.356Z,31.30
2019-01-20T09:26:00.979Z,31.20
2019-01-20T09:28:37.999Z,31.20
2019-01-20T09:31:14.394Z,31.10
2019-01-20T09:33:55.896Z,31.00
2019-01-20T09:36:32.672Z,30.90
2019-01-20T09:39:14.013Z,30.80
2019-01-20T09:41:50.616Z,30.70
2019-01-20T09:44:27.109Z,30.70
2019-01-20T09:47:03.777Z,30.60
2019-01-20T09:49:40.443Z,30.40
2019-01-20T09:52:17.084Z,30.50
2019-01-20T09:54:53.933Z,30.50
2019-01-20T09:57:30.569Z,30.50
2019-01-20T10:00:08.225Z,30.30
2019-01-20T10:02:44.604Z,30.30
2019-01-20T10:05:22.341Z,30.20
2019-01-20T10:07:59.265Z,30.20
2019-01-20T10:10:36.171Z,30.20
2019-01-20T10:13:13.012Z,30.10
2019-01-20T10:15:52.216Z,30.00
2019-01-20T10:18:27.515Z,29.90
2019-01-20T10:21:05.557Z,29.80
2019-01-20T10:23:42.927Z,29.70
2019-01-20T10:26:19.677Z,29.60
2019-01-20T10:28:56.590Z,29.60
2019-01-20T10:31:32.976Z,29.50
2019-01-20T10:34:09.987Z,29.40
2019-01-20T10:36:46.763Z,29.30
2019-01-20T10:39:23.079Z,29.20
2019-01-20T10:42:00.079Z,29.00
2019-01-20T10:44:36.841Z,29.00
2019-01-20T10:47:14.783Z,28.90
2019-01-20T10:49:51.803Z,28.80
2019-01-20T10:52:29.029Z,28.70
2019-01-20T10:55:05.599Z,28.50
2019-01-20T10:57:42.857Z,28.40
2019-01-20T11:00:31.234Z,28.20
2019-01-20T11:03:08.063Z,28.00
2019-01-20T11:05:44.792Z,27.90
2019-01-20T11:08:21.844Z,27.90
2019-01-20T11:11:00.018Z,27.80
2019-01-20T11:13:36.665Z,27.70
2019-01-20T11:16:13.433Z,27.60
2019-01-20T11:18:50.432Z,27.50
2019-01-20T11:21:26.689Z,27.40
2019-01-20T11:24:03.718Z,27.40
2019-01-20T11:26:41.263Z,27.20
2019-01-20T11:29:17.998Z,27.10
2019-01-20T11:31:55.090Z,26.90
2019-01-20T11:34:31.902Z,26.80
2019-01-20T11:37:08.907Z,26.70
2019-01-20T11:39:45.655Z,26.60
2019-01-20T11:42:22.168Z,26.60
2019-01-20T11:44:58.902Z,26.60
2019-01-20T11:47:41.868Z,26.60
2019-01-20T11:50:15.226Z,26.40
2019-01-20T11:52:52.770Z,26.40
2019-01-20T11:55:30.713Z,26.20
2019-01-20T11:58:07.696Z,26.20
2019-01-20T12:00:46.110Z,26.10
2019-01-20T12:03:22.951Z,26.10
2019-01-20T12:06:00.287Z,26.00
2019-01-20T12:08:37.261Z,26.00
2019-01-20T12:11:14.091Z,25.90
2019-01-20T12:13:50.638Z,25.80
2019-01-20T12:16:27.315Z,25.80
2019-01-20T12:19:04.806Z,25.60
2019-01-20T12:21:41.783Z,25.60
2019-01-20T12:24:19.481Z,25.50
2019-01-20T12:26:56.843Z,25.50
2019-01-20T12:29:33.513Z,25.50
2019-01-20T12:32:10.443Z,25.40
2019-01-20T12:34:47.098Z,25.40
2019-01-20T12:37:24.843Z,25.40
2019-01-20T12:40:01.338Z,25.40
2019-01-20T12:42:38.842Z,25.20
2019-01-20T12:45:16.465Z,25.00
2019-01-20T12:47:53.469Z,25.00
2019-01-20T12:50:30.426Z,25.10
2019-01-20T12:53:09.012Z,25.10
2019-01-20T12:55:45.661Z,25.00
2019-01-20T12:58:22.694Z,24.80
2019-01-20T13:00:59.517Z,24.80
2019-01-20T13:03:36.414Z,24.80
2019-01-20T13:06:12.900Z,24.80
2019-01-20T13:08:49.195Z,24.80
2019-01-20T13:11:25.994Z,24.80
2019-01-20T13:14:05.372Z,24.90
2019-01-20T13:16:42.757Z,24.90
2019-01-20T13:19:20.274Z,24.90
2019-01-20T13:21:57.260Z,24.70
2019-01-20T13:24:33.349Z,24.60
2019-01-20T13:27:10.021Z,24.60
2019-01-20T13:29:47.002Z,24.40
2019-01-20T13:32:23.559Z,24.40
2019-01-20T13:35:01.310Z,24.40
2019-01-20T13:37:37.424Z,24.30
2019-01-20T13:40:17.035Z,24.30
2019-01-20T13:42:54.683Z,24.30
2019-01-20T13:45:32.275Z,24.30
2019-01-20T13:48:11.426Z,24.20
2019-01-20T13:50:47.439Z,24.20
2019-01-20T13:53:24.469Z,24.10
2019-01-20T13:56:01.681Z,24.10
2019-01-20T13:58:38.705Z,24.00
2019-01-20T14:01:15.315Z,23.90
2019-01-20T14:03:52.985Z,23.90
2019-01-20T14:06:29.576Z,23.80
2019-01-20T14:09:06.468Z,23.80
2019-01-20T14:11:43.553Z,23.80
2019-01-20T14:14:20.843Z,23.80
2019-01-20T14:16:56.986Z,23.80
2019-01-20T14:19:33.582Z,23.70
2019-01-20T14:22:10.673Z,23.60
2019-01-20T14:24:47.733Z,23.60
2019-01-20T14:27:24.845Z,23.50
2019-01-20T14:30:02.487Z,23.70
2019-01-20T14:32:39.127Z,23.60
2019-01-20T14:35:16.784Z,23.40
2019-01-20T14:37:53.475Z,23.60
2019-01-20T14:40:29.999Z,23.70
2019-01-20T14:43:07.999Z,23.60
2019-01-20T14:45:44.643Z,23.30
2019-01-20T14:48:21.273Z,23.30
2019-01-20T14:50:58.007Z,23.30
2019-01-20T14:53:34.771Z,23.30
2019-01-20T14:56:11.507Z,23.20
2019-01-20T14:58:49.180Z,23.20
2019-01-20T15:01:25.522Z,23.30
2019-01-20T15:04:02.578Z,23.20
2019-01-20T15:06:39.180Z,23.30
2019-01-20T15:09:15.952Z,23.40
2019-01-20T15:11:53.320Z,23.40
2019-01-20T15:14:29.889Z,23.40
2019-01-20T15:17:07.104Z,23.40
2019-01-20T15:19:44.382Z,23.50
2019-01-20T15:22:21.174Z,23.50
2019-01-20T15:24:57.944Z,23.50
2019-01-20T15:27:33.968Z,23.50
2019-01-20T15:30:14.087Z,23.50
2019-01-20T15:32:50.200Z,23.40
2019-01-20T15:35:27.540Z,23.40
2019-01-20T15:38:04.372Z,23.30
2019-01-20T15:40:41.587Z,23.30
2019-01-20T15:43:18.314Z,23.20
2019-01-20T15:45:54.612Z,23.20
2019-01-20T15:48:31.843Z,23.30
2019-01-20T15:51:09.326Z,23.40
2019-01-20T15:53:46.384Z,23.60
2019-01-20T15:56:23.458Z,23.50
2019-01-20T15:58:59.883Z,23.70
2019-01-20T16:01:36.699Z,23.90
2019-01-20T16:04:14.203Z,24.10
2019-01-20T16:06:51.565Z,24.30
2019-01-20T16:09:28.666Z,24.30
2019-01-20T16:12:05.061Z,24.40
2019-01-20T16:14:41.997Z,24.40
2019-01-20T16:17:19.224Z,24.40
2019-01-20T16:19:56.703Z,24.40
2019-01-20T16:22:33.332Z,24.30
2019-01-20T16:25:14.056Z,24.30
2019-01-20T16:27:51.476Z,24.40
2019-01-20T16:30:30.971Z,24.40
2019-01-20T16:33:08.546Z,24.40
2019-01-20T16:35:44.980Z,24.40
2019-01-20T16:38:22.322Z,24.30
2019-01-20T16:40:58.856Z,24.30
2019-01-20T16:43:35.919Z,24.40
2019-01-20T16:46:13.108Z,24.40
2019-01-20T16:48:50.015Z,24.40
2019-01-20T16:51:26.579Z,24.40
2019-01-20T16:54:03.539Z,24.30
2019-01-20T16:56:39.677Z,24.30
2019-01-20T16:59:16.487Z,24.40
2019-01-20T17:01:53.244Z,24.30
2019-01-20T17:04:30.167Z,24.30
2019-01-20T17:07:08.109Z,24.30
2019-01-20T17:09:45.205Z,24.20
2019-01-20T17:12:22.158Z,24.10
2019-01-20T17:14:58.636Z,24.10
2019-01-20T17:17:35.199Z,24.00
2019-01-20T17:20:13.243Z,24.10
2019-01-20T17:22:50.414Z,24.10
2019-01-20T17:25:27.303Z,24.00
2019-01-20T17:28:04.323Z,23.80
2019-01-20T17:30:41.603Z,23.80
2019-01-20T17:33:19.049Z,23.70
2019-01-20T17:35:56.151Z,23.80
2019-01-20T17:38:33.787Z,23.70
2019-01-20T17:41:10.870Z,23.60
2019-01-20T17:43:47.499Z,23.70
2019-01-20T17:46:24.653Z,23.60
2019-01-20T17:49:01.717Z,23.50
2019-01-20T17:51:43.256Z,23.40
2019-01-20T17:54:20.031Z,23.30
2019-01-20T17:56:58.125Z,23.20
2019-01-20T17:59:35.185Z,23.30
2019-01-20T18:02:12.831Z,23.30
2019-01-20T18:04:49.679Z,23.20
2019-01-20T18:07:27.163Z,23.20
2019-01-20T18:10:03.973Z,23.20
2019-01-20T18:12:40.601Z,23.10
2019-01-20T18:15:18.579Z,23.00
2019-01-20T18:17:55.161Z,23.00
2019-01-20T18:20:32.817Z,23.10
2019-01-20T18:23:09.312Z,23.00
2019-01-20T18:25:46.665Z,23.00
2019-01-20T18:28:22.996Z,22.80
2019-01-20T18:30:59.808Z,22.70
2019-01-20T18:33:37.668Z,22.70
2019-01-20T18:36:14.529Z,22.70
2019-01-20T18:38:51.042Z,22.80
2019-01-20T18:41:28.157Z,22.80
2019-01-20T18:44:04.952Z,22.70
2019-01-20T18:46:41.819Z,22.70
2019-01-20T18:49:18.388Z,22.70
2019-01-20T18:51:55.346Z,22.60
2019-01-20T18:54:31.922Z,22.50
2019-01-20T18:57:08.772Z,22.50
2019-01-20T18:59:45.207Z,22.50
2019-01-20T19:02:22.076Z,22.50
2019-01-20T19:04:58.680Z,22.50
2019-01-20T19:07:36.539Z,22.40
2019-01-20T19:10:13.984Z,22.30
2019-01-20T19:12:51.092Z,22.00
2019-01-20T19:15:27.519Z,21.90
2019-01-20T19:18:04.443Z,21.80
2019-01-20T19:20:41.001Z,21.80
2019-01-20T19:23:18.658Z,21.90
2019-01-20T19:25:55.346Z,22.00
2019-01-20T19:28:32.933Z,21.90
2019-01-20T19:31:09.434Z,21.80
2019-01-20T19:33:46.253Z,21.70
2019-01-20T19:36:22.961Z,22.00
2019-01-20T19:38:59.647Z,22.30
2019-01-20T19:41:36.504Z,22.40
2019-01-20T19:44:13.150Z,22.50
2019-01-20T19:46:49.552Z,22.50
2019-01-20T19:49:25.766Z,22.40
2019-01-20T19:52:02.367Z,22.30
2019-01-20T19:54:38.609Z,22.30
2019-01-20T19:57:15.323Z,22.10
2019-01-20T19:59:52.183Z,22.20
2019-01-20T20:02:28.879Z,22.10
2019-01-20T20:05:05.855Z,22.10
2019-01-20T20:07:42.963Z,22.20
2019-01-20T20:10:20.731Z,22.10
2019-01-20T20:12:57.987Z,21.80
2019-01-20T20:15:34.818Z,21.90
2019-01-20T20:18:11.665Z,21.90
2019-01-20T20:20:49.160Z,21.80
2019-01-20T20:23:26.046Z,21.80
2019-01-20T20:26:03.015Z,21.80
2019-01-20T20:28:39.720Z,21.60
2019-01-20T20:31:17.097Z,21.60
2019-01-20T20:33:54.096Z,21.70
2019-01-20T20:36:30.691Z,21.70
2019-01-20T20:39:08.564Z,21.60
2019-01-20T20:41:48.411Z,21.40
2019-01-20T20:44:27.420Z,21.40
2019-01-20T20:47:04.387Z,21.30
2019-01-20T20:49:41.323Z,21.30
2019-01-20T20:52:17.815Z,21.40
2019-01-20T20:54:54.916Z,21.40
2019-01-20T20:57:32.108Z,21.30
2019-01-20T21:00:10.503Z,21.20
2019-01-20T21:02:47.555Z,21.10
2019-01-20T21:05:24.485Z,21.10
2019-01-20T21:08:01.345Z,21.00
2019-01-20T21:10:38.350Z,21.10
2019-01-20T21:13:15.455Z,21.20
2019-01-20T21:15:52.499Z,21.10
2019-01-20T21:18:29.194Z,21.20
2019-01-20T21:21:05.995Z,21.10
2019-01-20T21:23:42.829Z,21.10
2019-01-20T21:26:19.745Z,21.10
2019-01-20T21:28:56.169Z,21.00
2019-01-20T21:31:33.142Z,21.10
2019-01-20T21:34:10.076Z,21.10
2019-01-20T21:36:47.053Z,21.10
2019-01-20T21:39:23.712Z,21.10
2019-01-20T21:42:00.403Z,21.10
2019-01-20T21:44:37.125Z,21.00
2019-01-20T21:47:13.986Z,20.90
2019-01-20T21:49:50.549Z,20.90
2019-01-20T21:52:27.292Z,20.90
2019-01-20T21:55:03.830Z,20.90
2019-01-20T21:57:40.860Z,20.90
2019-01-20T22:00:19.958Z,20.80
2019-01-20T22:02:56.699Z,20.90
2019-01-20T22:05:33.688Z,20.80
2019-01-20T22:08:10.614Z,20.80
2019-01-20T22:10:47.557Z,20.70
2019-01-20T22:13:24.455Z,20.80
2019-01-20T22:16:01.973Z,20.90
2019-01-20T22:18:38.823Z,20.90
2019-01-20T22:21:15.609Z,20.90
2019-01-20T22:23:52.517Z,20.70
2019-01-20T22:26:28.961Z,20.60
2019-01-20T22:29:05.910Z,20.60
2019-01-20T22:31:42.567Z,20.70
2019-01-20T22:34:19.313Z,20.50
2019-01-20T22:36:56.141Z,20.40
2019-01-20T22:39:33.377Z,20.40
2019-01-20T22:42:10.030Z,20.50
2019-01-20T22:44:47.351Z,20.60
2019-01-20T22:47:25.422Z,20.50
2019-01-20T22:50:02.545Z,20.50
2019-01-20T22:52:39.106Z,20.60
2019-01-20T22:55:17.451Z,20.60
2019-01-20T22:57:55.256Z,20.60
2019-01-20T23:00:52.383Z,20.60
2019-01-20T23:03:29.775Z,20.70
2019-01-20T23:06:06.649Z,20.60
2019-01-20T23:08:43.752Z,20.60
2019-01-20T23:11:21.259Z,20.60
2019-01-20T23:13:58.200Z,20.60
2019-01-20T23:16:34.994Z,20.50
2019-01-20T23:19:12.838Z,20.70
2019-01-20T23:21:49.078Z,20.70
2019-01-20T23:24:26.272Z,20.80
2019-01-20T23:27:02.569Z,20.70
2019-01-20T23:29:39.025Z,20.80
2019-01-20T23:32:15.667Z,20.90
2019-01-20T23:34:52.636Z,20.80
2019-01-20T23:37:29.207Z,20.60
2019-01-20T23:40:05.932Z,20.50
2019-01-20T23:42:42.779Z,20.40
2019-01-20T23:45:19.245Z,20.50
2019-01-20T23:47:55.951Z,20.60
2019-01-20T23:50:32.519Z,20.70
2019-01-20T23:53:09.412Z,20.70
2019-01-20T23:55:46.259Z,20.70
2019-01-20T23:58:23.388Z,20.60
